createdAt,value
2022-08-22T00:02:00.321Z,99.00
2022-08-22T00:02:58.875Z,98.90
2022-08-22T00:03:01.116Z,94.20
2022-08-22T00:03:03.073Z,98.80
2022-08-22T00:03:08.059Z,98.60
2022-08-22T00:04:33.327Z,99.10
2022-08-22T00:07:05.365Z,99.10
2022-08-22T00:09:36.423Z,99.30
2022-08-22T00:12:08.240Z,99.70
2022-08-22T00:14:37.080Z,99.80
2022-08-22T00:17:10.048Z,99.90
2022-08-22T00:19:45.248Z,99.90
2022-08-22T00:22:18.106Z,99.90
2022-08-22T00:24:47.962Z,99.90
2022-08-22T00:27:16.690Z,99.90
2022-08-22T00:29:45.663Z,99.90
2022-08-22T00:32:14.369Z,99.90
2022-08-22T00:34:46.348Z,99.90
2022-08-22T00:37:19.107Z,99.90
2022-08-22T00:39:48.726Z,99.90
2022-08-22T00:42:29.316Z,99.90
2022-08-22T00:45:12.719Z,99.90
2022-08-22T00:47:51.460Z,99.90
2022-08-22T00:50:39.489Z,99.90
2022-08-22T00:53:26.138Z,99.90
2022-08-22T00:55:58.336Z,99.90
2022-08-22T00:58:49.391Z,99.90
2022-08-22T01:01:20.093Z,99.90
2022-08-22T01:03:53.523Z,99.90
2022-08-22T01:06:24.869Z,99.90
2022-08-22T01:09:01.383Z,99.90
2022-08-22T01:11:49.448Z,99.90
2022-08-22T01:14:34.180Z,99.90
2022-08-22T01:17:17.532Z,99.90
2022-08-22T01:20:02.487Z,99.90
2022-08-22T01:22:47.074Z,99.90
2022-08-22T01:25:35.135Z,99.90
2022-08-22T01:28:23.624Z,99.90
2022-08-22T01:31:09.928Z,99.90
2022-08-22T01:33:52.037Z,99.90
2022-08-22T01:36:38.522Z,99.90
2022-08-22T01:39:23.499Z,99.90
2022-08-22T01:41:59.728Z,99.90
2022-08-22T01:44:40.525Z,99.90
2022-08-22T01:47:11.703Z,99.90
2022-08-22T01:49:44.094Z,99.90
2022-08-22T01:52:15.490Z,99.70
2022-08-22T01:54:49.015Z,99.90
2022-08-22T01:57:16.413Z,99.90
2022-08-22T01:59:45.462Z,99.90
2022-08-22T02:02:33.173Z,99.90
2022-08-22T02:05:03.073Z,99.90
2022-08-22T02:07:33.642Z,99.90
2022-08-22T02:10:06.346Z,99.90
2022-08-22T02:12:37.184Z,99.90
2022-08-22T02:15:08.004Z,99.90
2022-08-22T02:17:48.050Z,99.90
2022-08-22T02:20:20.713Z,99.90
2022-08-22T02:22:55.110Z,99.90
2022-08-22T02:25:23.722Z,99.90
2022-08-22T02:27:53.385Z,99.90
2022-08-22T02:30:21.702Z,99.90
2022-08-22T02:32:56.267Z,99.90
2022-08-22T02:35:27.235Z,99.90
2022-08-22T02:37:59.898Z,99.90
2022-08-22T02:40:30.599Z,99.90
2022-08-22T02:43:00.049Z,99.90
2022-08-22T02:45:30.894Z,99.90
2022-08-22T02:48:01.147Z,99.90
2022-08-22T02:50:33.113Z,99.90
2022-08-22T02:53:05.473Z,99.90
2022-08-22T02:55:46.224Z,99.90
2022-08-22T02:58:18.310Z,99.90
2022-08-22T03:00:47.539Z,99.90
2022-08-22T03:03:16.287Z,99.90
2022-08-22T03:05:48.394Z,99.90
2022-08-22T03:08:21.246Z,99.90
2022-08-22T03:10:54.658Z,99.90
2022-08-22T03:13:25.620Z,99.90
2022-08-22T03:15:53.412Z,99.90
2022-08-22T03:18:24.673Z,99.90
2022-08-22T03:20:54.359Z,99.90
2022-08-22T03:23:28.133Z,99.90
2022-08-22T03:25:59.318Z,99.90
2022-08-22T03:28:27.637Z,99.90
2022-08-22T03:30:59.490Z,99.90
2022-08-22T03:33:27.940Z,99.90
2022-08-22T03:35:58.355Z,99.90
2022-08-22T03:38:28.662Z,99.90
2022-08-22T03:41:04.494Z,99.90
2022-08-22T03:43:38.767Z,99.90
2022-08-22T03:46:18.936Z,99.90
2022-08-22T03:48:56.848Z,99.90
2022-08-22T03:51:32.168Z,99.90
2022-08-22T03:54:15.340Z,99.90
2022-08-22T03:57:01.171Z,99.90
2022-08-22T03:59:55.389Z,99.90
2022-08-22T04:02:42.860Z,99.90
2022-08-22T04:05:39.629Z,99.90
2022-08-22T04:08:29.023Z,99.90
2022-08-22T04:11:05.219Z,99.90
2022-08-22T04:13:44.183Z,99.90
2022-08-22T04:16:32.712Z,99.90
2022-08-22T04:19:15.681Z,99.90
2022-08-22T04:21:52.149Z,99.90
2022-08-22T04:24:34.075Z,99.90
2022-08-22T04:27:07.170Z,99.90
2022-08-22T04:29:37.140Z,99.90
2022-08-22T04:32:11.573Z,99.90
2022-08-22T04:34:43.253Z,99.90
2022-08-22T04:37:14.458Z,99.90
2022-08-22T04:39:45.247Z,99.90
2022-08-22T04:44:36.745Z,99.90
2022-08-22T04:47:06.359Z,99.90
2022-08-22T04:49:35.464Z,99.90
2022-08-22T04:52:08.826Z,99.90
2022-08-22T04:54:40.850Z,99.90
2022-08-22T04:57:14.541Z,99.90
2022-08-22T04:59:42.981Z,99.90
2022-08-22T05:02:12.226Z,99.90
2022-08-22T05:04:41.121Z,99.90
2022-08-22T05:07:10.861Z,99.90
2022-08-22T05:09:42.933Z,99.90
2022-08-22T05:12:12.058Z,99.90
2022-08-22T05:14:40.124Z,99.90
2022-08-22T05:17:09.715Z,99.90
2022-08-22T05:19:38.377Z,99.90
2022-08-22T05:22:11.803Z,99.90
2022-08-22T05:24:39.831Z,99.90
2022-08-22T05:27:11.248Z,99.90
2022-08-22T05:29:39.803Z,99.90
2022-08-22T05:32:12.563Z,99.90
2022-08-22T05:34:42.240Z,99.90
2022-08-22T05:37:12.559Z,99.90
2022-08-22T05:39:40.685Z,99.90
2022-08-22T05:42:12.981Z,99.90
2022-08-22T05:44:40.237Z,99.90
2022-08-22T05:47:18.923Z,99.90
2022-08-22T05:49:49.696Z,99.90
2022-08-22T05:52:24.923Z,99.90
2022-08-22T05:54:53.778Z,99.90
2022-08-22T05:57:23.810Z,99.90
2022-08-22T05:59:53.791Z,99.90
2022-08-22T06:02:23.914Z,99.90
2022-08-22T06:04:54.624Z,99.90
2022-08-22T06:07:25.895Z,99.90
2022-08-22T06:10:03.175Z,99.90
2022-08-22T06:12:34.311Z,99.90
2022-08-22T06:15:11.809Z,99.90
2022-08-22T06:17:42.592Z,99.90
2022-08-22T06:20:12.352Z,99.90
2022-08-22T06:22:45.286Z,99.90
2022-08-22T06:25:15.422Z,99.30
2022-08-22T06:27:42.996Z,98.60
2022-08-22T06:30:13.413Z,98.70
2022-08-22T06:33:00.132Z,98.00
2022-08-22T06:35:29.255Z,98.90
2022-08-22T06:37:58.985Z,98.80
2022-08-22T06:40:28.199Z,98.20
2022-08-22T06:42:55.901Z,98.00
2022-08-22T06:45:25.237Z,97.70
2022-08-22T06:47:58.010Z,97.20
2022-08-22T06:50:31.054Z,97.00
2022-08-22T06:52:59.631Z,96.50
2022-08-22T06:55:27.401Z,96.10
2022-08-22T06:57:56.253Z,96.50
2022-08-22T07:00:23.862Z,95.90
2022-08-22T07:02:53.154Z,94.90
2022-08-22T07:05:22.538Z,94.60
2022-08-22T07:07:50.250Z,94.40
2022-08-22T07:10:18.168Z,91.50
2022-08-22T07:15:31.017Z,85.30
2022-08-22T07:17:59.556Z,69.50
2022-08-22T07:20:28.094Z,63.40
2022-08-22T07:22:57.353Z,59.10
2022-08-22T07:25:25.196Z,57.80
2022-08-22T07:28:03.868Z,54.10
2022-08-22T07:30:48.971Z,52.00
2022-08-22T07:33:26.502Z,53.20
2022-08-22T07:35:59.115Z,54.70
2022-08-22T07:38:31.531Z,53.40
2022-08-22T07:41:01.810Z,54.20
2022-08-22T07:43:31.310Z,56.40
2022-08-22T07:46:02.815Z,58.30
2022-08-22T07:48:32.752Z,59.90
2022-08-22T07:51:01.915Z,61.70
2022-08-22T07:53:34.097Z,65.10
2022-08-22T07:56:02.509Z,69.80
2022-08-22T07:58:31.454Z,70.90
2022-08-22T08:01:00.403Z,72.80
2022-08-22T08:03:28.759Z,74.20
2022-08-22T08:05:55.927Z,75.70
2022-08-22T08:08:25.006Z,75.90
2022-08-22T08:10:54.476Z,77.00
2022-08-22T08:13:24.583Z,75.90
2022-08-22T08:15:51.989Z,75.90
2022-08-22T08:18:22.060Z,77.80
2022-08-22T08:20:50.008Z,78.80
2022-08-22T08:23:23.779Z,79.20
2022-08-22T08:26:03.313Z,78.30
2022-08-22T08:28:36.285Z,75.80
2022-08-22T08:31:09.679Z,76.00
2022-08-22T08:33:39.891Z,74.90
2022-08-22T08:36:11.291Z,75.00
2022-08-22T08:38:42.292Z,74.10
2022-08-22T08:41:30.743Z,75.60
2022-08-22T08:44:00.319Z,76.10
2022-08-22T08:46:50.248Z,77.70
2022-08-22T08:49:38.824Z,75.40
2022-08-22T08:52:20.400Z,74.30
2022-08-22T08:54:56.494Z,72.80
2022-08-22T08:57:31.666Z,73.50
2022-08-22T09:00:02.059Z,70.50
2022-08-22T09:02:38.186Z,65.70
2022-08-22T09:05:38.257Z,65.80
2022-08-22T09:08:24.633Z,65.90
2022-08-22T09:11:09.705Z,61.20
2022-08-22T09:13:45.905Z,61.20
2022-08-22T09:16:31.580Z,59.20
2022-08-22T09:19:16.559Z,59.90
2022-08-22T09:22:02.177Z,57.90
2022-08-22T09:24:47.029Z,55.80
2022-08-22T09:27:16.158Z,54.70
2022-08-22T09:29:51.692Z,53.80
2022-08-22T09:32:28.737Z,54.80
2022-08-22T09:34:59.776Z,55.00
2022-08-22T09:37:35.059Z,51.80
2022-08-22T09:40:06.264Z,51.20
2022-08-22T09:42:40.032Z,52.50
2022-08-22T09:45:24.525Z,50.50
2022-08-22T09:47:58.129Z,51.70
2022-08-22T09:50:43.277Z,50.90
2022-08-22T09:53:18.744Z,50.70
2022-08-22T09:55:51.427Z,50.40
2022-08-22T09:58:23.615Z,48.80
2022-08-22T10:00:55.538Z,48.80
2022-08-22T10:03:27.878Z,48.20
2022-08-22T10:06:00.412Z,47.00
2022-08-22T10:08:36.841Z,46.80
2022-08-22T10:11:22.895Z,48.40
2022-08-22T10:14:00.573Z,49.80
2022-08-22T10:16:37.998Z,50.40
2022-08-22T10:19:10.640Z,51.10
2022-08-22T10:21:39.693Z,50.00
2022-08-22T10:24:25.186Z,50.60
2022-08-22T10:26:54.553Z,51.50
2022-08-22T10:29:38.716Z,51.10
2022-08-22T10:32:14.720Z,51.90
2022-08-22T10:34:44.641Z,50.60
2022-08-22T10:37:17.558Z,50.40
2022-08-22T10:39:58.191Z,50.50
2022-08-22T10:42:28.008Z,49.90
2022-08-22T10:45:03.755Z,51.40
2022-08-22T10:47:34.447Z,49.50
2022-08-22T10:50:11.546Z,48.20
2022-08-22T10:52:45.035Z,47.60
2022-08-22T10:55:17.519Z,45.70
2022-08-22T10:57:53.999Z,44.90
2022-08-22T11:00:33.054Z,46.60
2022-08-22T11:03:09.908Z,47.00
2022-08-22T11:05:41.437Z,46.60
2022-08-22T11:08:34.603Z,47.10
2022-08-22T11:11:09.144Z,47.90
2022-08-22T11:13:42.349Z,46.60
2022-08-22T11:16:19.299Z,48.40
2022-08-22T11:19:02.579Z,48.40
2022-08-22T11:21:38.376Z,46.50
2022-08-22T11:24:17.780Z,46.30
2022-08-22T11:27:04.404Z,45.70
2022-08-22T11:29:38.821Z,43.10
2022-08-22T11:32:13.801Z,42.80
2022-08-22T11:34:50.100Z,41.50
2022-08-22T11:37:20.524Z,41.30
2022-08-22T11:39:59.409Z,44.20
2022-08-22T11:42:31.299Z,42.90
2022-08-22T11:44:59.670Z,44.80
2022-08-22T11:47:29.293Z,43.00
2022-08-22T11:49:59.347Z,43.30
2022-08-22T11:52:30.775Z,44.90
2022-08-22T11:55:19.992Z,45.50
2022-08-22T11:57:52.350Z,46.80
2022-08-22T12:00:29.162Z,45.00
2022-08-22T12:03:09.043Z,46.50
2022-08-22T12:05:37.533Z,44.00
2022-08-22T12:08:11.248Z,44.10
2022-08-22T12:10:42.851Z,44.10
2022-08-22T12:13:17.019Z,45.70
2022-08-22T12:15:49.019Z,46.10
2022-08-22T12:18:27.779Z,45.80
2022-08-22T12:20:59.147Z,45.90
2022-08-22T12:23:48.999Z,48.70
2022-08-22T12:26:22.862Z,46.80
2022-08-22T12:28:59.216Z,47.20
2022-08-22T12:31:31.372Z,46.50
2022-08-22T12:34:03.098Z,46.70
2022-08-22T12:36:54.499Z,46.70
2022-08-22T12:39:42.579Z,48.20
2022-08-22T12:42:16.756Z,49.50
2022-08-22T12:44:52.896Z,47.80
2022-08-22T12:47:31.906Z,47.90
2022-08-22T12:50:06.743Z,46.70
2022-08-22T12:52:46.529Z,45.80
2022-08-22T12:55:25.064Z,45.20
2022-08-22T12:57:59.030Z,45.70
2022-08-22T13:00:34.721Z,46.80
2022-08-22T13:03:03.446Z,46.80
2022-08-22T13:05:34.282Z,45.40
2022-08-22T13:08:10.028Z,45.40
2022-08-22T13:10:44.776Z,44.20
2022-08-22T13:13:14.221Z,46.30
2022-08-22T13:15:53.756Z,45.10
2022-08-22T13:18:30.551Z,45.00
2022-08-22T13:21:01.355Z,45.80
2022-08-22T13:23:30.704Z,45.30
2022-08-22T13:26:32.971Z,45.70
2022-08-22T13:29:24.791Z,46.70
2022-08-22T13:31:55.205Z,48.10
2022-08-22T13:34:29.019Z,46.20
2022-08-22T13:36:59.343Z,48.20
2022-08-22T13:39:31.905Z,49.00
2022-08-22T13:42:00.193Z,46.60
2022-08-22T13:44:28.665Z,47.00
2022-08-22T13:47:13.719Z,46.90
2022-08-22T13:49:42.408Z,46.60
2022-08-22T13:52:29.234Z,45.50
2022-08-22T13:55:00.705Z,46.30
2022-08-22T13:57:30.577Z,48.20
2022-08-22T14:00:06.105Z,47.00
2022-08-22T14:02:55.159Z,49.90
2022-08-22T14:05:23.920Z,47.80
2022-08-22T14:07:57.044Z,47.00
2022-08-22T14:10:27.640Z,47.80
2022-08-22T14:13:17.634Z,48.10
2022-08-22T14:15:45.421Z,49.40
2022-08-22T14:18:16.916Z,48.10
2022-08-22T14:20:47.618Z,47.20
2022-08-22T14:23:22.283Z,47.50
2022-08-22T14:25:52.930Z,46.90
2022-08-22T14:28:23.260Z,46.80
2022-08-22T14:31:00.566Z,47.20
2022-08-22T14:33:33.241Z,46.60
2022-08-22T14:36:03.501Z,47.70
2022-08-22T14:38:35.558Z,46.60
2022-08-22T14:41:05.762Z,45.70
2022-08-22T14:43:40.439Z,46.60
2022-08-22T14:46:09.032Z,46.70
2022-08-22T14:48:41.863Z,46.20
2022-08-22T14:51:18.271Z,46.20
2022-08-22T14:53:50.085Z,47.00
2022-08-22T14:56:19.006Z,47.00
2022-08-22T14:58:48.917Z,47.80
2022-08-22T15:01:18.241Z,49.10
2022-08-22T15:03:51.605Z,46.80
2022-08-22T15:06:29.922Z,45.30
2022-08-22T15:08:57.801Z,44.30
2022-08-22T15:11:27.289Z,43.90
2022-08-22T15:14:01.540Z,43.20
2022-08-22T15:16:34.275Z,43.60
2022-08-22T15:19:06.728Z,46.50
2022-08-22T15:21:33.863Z,44.70
2022-08-22T15:24:10.345Z,46.00
2022-08-22T15:26:39.587Z,46.80
2022-08-22T15:29:08.855Z,46.10
2022-08-22T15:31:37.909Z,47.30
2022-08-22T15:34:12.356Z,45.30
2022-08-22T15:37:00.599Z,46.20
2022-08-22T15:39:37.987Z,46.10
2022-08-22T15:42:05.369Z,47.40
2022-08-22T15:44:44.262Z,47.10
2022-08-22T15:47:27.702Z,46.60
2022-08-22T15:49:59.647Z,47.00
2022-08-22T15:52:28.494Z,47.00
2022-08-22T15:55:20.270Z,46.80
2022-08-22T15:58:04.802Z,45.10
2022-08-22T16:00:33.437Z,45.20
2022-08-22T16:03:03.062Z,44.70
2022-08-22T16:05:41.120Z,45.40
2022-08-22T16:08:09.330Z,44.30
2022-08-22T16:10:38.269Z,44.80
2022-08-22T16:13:23.043Z,46.30
2022-08-22T16:16:00.707Z,46.20
2022-08-22T16:18:46.833Z,47.00
2022-08-22T16:21:18.862Z,46.60
2022-08-22T16:24:01.066Z,47.40
2022-08-22T16:26:36.902Z,48.10
2022-08-22T16:29:26.959Z,48.60
2022-08-22T16:31:56.844Z,48.60
2022-08-22T16:34:25.261Z,48.70
2022-08-22T16:37:23.264Z,49.70
2022-08-22T16:39:52.382Z,48.60
2022-08-22T16:42:24.653Z,47.70
2022-08-22T16:44:55.118Z,48.50
2022-08-22T16:47:24.865Z,48.10
2022-08-22T16:49:57.171Z,48.30
2022-08-22T16:52:54.654Z,48.20
2022-08-22T16:55:40.819Z,47.70
2022-08-22T16:58:15.124Z,48.50
2022-08-22T17:00:49.748Z,50.00
2022-08-22T17:03:22.556Z,50.40
2022-08-22T17:05:55.671Z,50.00
2022-08-22T17:08:27.858Z,49.10
2022-08-22T17:11:00.015Z,49.90
2022-08-22T17:13:36.762Z,49.50
2022-08-22T17:16:15.573Z,48.70
2022-08-22T17:18:49.576Z,48.70
2022-08-22T17:21:25.444Z,49.10
2022-08-22T17:23:58.033Z,48.80
2022-08-22T17:26:28.745Z,49.90
2022-08-22T17:29:04.660Z,49.20
2022-08-22T17:31:36.059Z,50.50
2022-08-22T17:34:09.201Z,50.60
2022-08-22T17:36:45.630Z,50.00
2022-08-22T17:39:18.841Z,50.10
2022-08-22T17:41:50.175Z,51.40
2022-08-22T17:44:23.142Z,51.00
2022-08-22T17:46:52.973Z,51.40
2022-08-22T17:49:23.428Z,51.50
2022-08-22T17:51:53.824Z,50.80
2022-08-22T17:54:29.502Z,51.10
2022-08-22T17:57:00.466Z,51.70
2022-08-22T17:59:39.806Z,52.20
2022-08-22T18:02:11.574Z,53.80
2022-08-22T18:04:47.381Z,53.40
2022-08-22T18:07:25.215Z,53.30
2022-08-22T18:09:53.842Z,53.10
2022-08-22T18:12:22.578Z,53.60
2022-08-22T18:14:52.567Z,53.10
2022-08-22T18:17:21.771Z,54.00
2022-08-22T18:19:56.047Z,53.60
2022-08-22T18:22:27.587Z,53.60
2022-08-22T18:24:57.726Z,54.10
2022-08-22T18:27:29.679Z,55.90
2022-08-22T18:30:15.677Z,56.30
2022-08-22T18:32:48.250Z,56.60
2022-08-22T18:35:18.357Z,56.60
2022-08-22T18:37:55.530Z,57.40
2022-08-22T18:40:43.460Z,58.10
2022-08-22T18:43:18.256Z,59.90
2022-08-22T18:46:04.096Z,61.00
2022-08-22T18:48:37.038Z,62.70
2022-08-22T18:51:24.673Z,64.30
2022-08-22T18:53:58.206Z,67.10
2022-08-22T18:56:43.460Z,68.80
2022-08-22T18:59:21.368Z,68.50
2022-08-22T19:01:54.369Z,69.60
2022-08-22T19:05:13.856Z,71.20
2022-08-22T19:07:51.066Z,71.70
2022-08-22T19:10:30.403Z,71.40
2022-08-22T19:13:04.233Z,69.70
2022-08-22T19:15:36.018Z,70.10
2022-08-22T19:18:26.612Z,70.70
2022-08-22T19:21:34.183Z,72.10
2022-08-22T19:24:05.491Z,73.50
2022-08-22T19:26:35.398Z,74.20
2022-08-22T19:29:08.767Z,74.90
2022-08-22T19:32:02.916Z,74.30
2022-08-22T19:34:46.977Z,74.90
2022-08-22T19:37:32.574Z,74.50
2022-08-22T19:40:05.025Z,74.80
2022-08-22T19:42:34.407Z,76.10
2022-08-22T19:45:03.658Z,75.30
2022-08-22T19:47:32.215Z,76.70
2022-08-22T19:50:00.933Z,76.20
2022-08-22T19:52:32.652Z,76.10
2022-08-22T19:55:04.936Z,76.70
2022-08-22T19:57:36.713Z,77.10
2022-08-22T20:00:08.007Z,77.70
2022-08-22T20:02:38.807Z,77.60
2022-08-22T20:05:27.565Z,77.60
2022-08-22T20:08:02.635Z,78.40
2022-08-22T20:10:36.897Z,78.90
2022-08-22T20:13:05.763Z,78.80
2022-08-22T20:15:54.868Z,79.70
2022-08-22T20:19:05.026Z,79.50
2022-08-22T20:21:42.239Z,78.50
2022-08-22T20:24:12.844Z,79.40
2022-08-22T20:26:57.303Z,80.70
2022-08-22T20:29:29.712Z,83.10
2022-08-22T20:31:58.927Z,83.50
2022-08-22T20:34:27.842Z,83.50
2022-08-22T20:37:09.815Z,83.90
2022-08-22T20:39:58.776Z,84.20
2022-08-22T20:42:26.295Z,83.90
2022-08-22T20:44:54.101Z,85.30
2022-08-22T20:47:23.090Z,85.00
2022-08-22T20:49:51.705Z,86.20
2022-08-22T20:52:25.829Z,88.10
2022-08-22T20:55:02.709Z,90.00
2022-08-22T21:00:11.911Z,90.70
2022-08-22T21:02:40.930Z,91.20
2022-08-22T21:05:18.484Z,90.80
2022-08-22T21:07:46.666Z,90.40
2022-08-22T21:10:36.671Z,90.00
2022-08-22T21:13:05.443Z,89.70
2022-08-22T21:15:35.476Z,89.70
2022-08-22T21:18:03.619Z,89.80
2022-08-22T21:20:32.256Z,90.30
2022-08-22T21:25:19.952Z,90.00
2022-08-22T21:27:48.136Z,89.30
2022-08-22T21:30:21.383Z,89.30
2022-08-22T21:32:52.408Z,90.00
2022-08-22T21:35:24.676Z,89.70
2022-08-22T21:37:51.846Z,90.00
2022-08-22T21:40:21.628Z,89.50
2022-08-22T21:42:58.561Z,89.10
2022-08-22T21:45:27.002Z,89.30
2022-08-22T21:47:53.988Z,90.00
2022-08-22T21:50:34.940Z,90.20
2022-08-22T21:53:04.087Z,90.00
2022-08-22T21:55:34.416Z,89.90
2022-08-22T21:58:35.562Z,89.70
2022-08-22T22:01:24.886Z,90.00
2022-08-22T22:03:54.147Z,90.00
2022-08-22T22:06:21.333Z,89.90
2022-08-22T22:08:48.940Z,89.80
2022-08-22T22:11:16.152Z,90.10
2022-08-22T22:13:44.047Z,90.20
2022-08-22T22:16:14.283Z,90.20
2022-08-22T22:18:41.331Z,90.20
2022-08-22T22:21:09.932Z,90.30
2022-08-22T22:23:36.899Z,90.70
2022-08-22T22:26:04.842Z,91.10
2022-08-22T22:28:33.557Z,91.10
2022-08-22T22:31:00.692Z,91.20
2022-08-22T22:33:29.081Z,91.40
2022-08-22T22:35:57.531Z,91.80
2022-08-22T22:38:25.980Z,91.70
2022-08-22T22:40:55.961Z,91.60
2022-08-22T22:43:22.919Z,91.70
2022-08-22T22:45:49.999Z,91.90
2022-08-22T22:48:18.836Z,92.00
2022-08-22T22:50:52.248Z,92.00
2022-08-22T22:53:21.525Z,92.10
2022-08-22T22:56:09.591Z,92.30
2022-08-22T22:58:37.460Z,92.50
2022-08-22T23:02:16.601Z,92.50
2022-08-22T23:04:44.483Z,92.60
2022-08-22T23:07:13.486Z,92.80
2022-08-22T23:09:44.908Z,92.90
2022-08-22T23:12:12.302Z,93.00
2022-08-22T23:14:39.468Z,93.10
2022-08-22T23:17:07.157Z,93.20
2022-08-22T23:19:38.768Z,93.20
2022-08-22T23:22:06.698Z,93.50
2022-08-22T23:24:40.430Z,93.80
2022-08-22T23:27:08.983Z,94.40
2022-08-22T23:29:37.303Z,95.00
2022-08-22T23:32:05.002Z,94.90
2022-08-22T23:34:33.151Z,95.10
2022-08-22T23:37:02.577Z,95.10
2022-08-22T23:39:34.850Z,95.40
2022-08-22T23:42:02.303Z,95.50
2022-08-22T23:44:31.297Z,95.80
2022-08-22T23:46:58.536Z,96.00
2022-08-22T23:49:25.468Z,96.00
2022-08-22T23:51:52.510Z,96.30
2022-08-22T23:54:21.443Z,96.50
2022-08-22T23:56:50.391Z,96.70
2022-08-22T23:59:18.708Z,97.10
